Logo AVAMET
Benvolgut visitant, si us plau, ingressa Recuperar contrasenya

Peníscola Gran Hotel Peñiscola

Dades diàries. Acumulats / Últims 30 dies disponibles

Data Temperatura (°C) Humitat rel. (%) Pressió rel. (hPa) Vent (km/h) Precipitació
Mínima Mitjana Màxima Amplitud
tèrmica
Mínima Mitjana Màxima Mínima Mitjana Màxima Predom. Mitjana Ràfega
màxima
Total
(mm)
Índex-n
Mínima Mitjana Màxima Mínima Mitjana Màxima n
0 a 1
P0 max
mm 5'
Dades mensuals acumulades fins l'últim dia disponible
08/2019 19,6 22,5 26,2 26,1 26,8 29,7 31,6 12,0 36 71 92 1.007 1.013 1.019   5,5 45,0 59,0
Dades anuals acumulades fins l'últim dia disponible
2019 2,3 13,4 26,2 17,6 9,3 21,8 32,6 30,3 1 65 94 987 1.015 1.034   6,5 71,0 119,2
Últims 30 dies disponibles
24-08-2019 20,3     24,4     28,6 8,3 67 77 87 1.015 1.016 1.017 21,0
23-08-2019 20,1     24,1     28,0 7,9 65 77 89 1.016 1.018 1.019 24,0
22-08-2019 19,7     24,6     29,4 9,7 52 66 80 1.017 1.018 1.018 29,0
21-08-2019 21,8     24,6     27,4 5,6 65 76 87 1.016 1.018 1.019 35,0
20-08-2019 20,4     23,6     26,8 6,4 61 77 92 1.012 1.016 1.019 45,0 59,0 0,11 8,40
19-08-2019 23,2     26,6     30,3 7,1 52 77 88 1.010 1.013 1.014 SSO 6,0 25,7 0,0
18-08-2019 23,4     26,6     30,3 6,9 70 80 85 1.008 1.010 1.012 S 4,9 24,1 0,0
17-08-2019 23,6     27,1     30,5 6,9 66 74 81 1.011 1.013 1.014 31,0 0,0
16-08-2019 22,8     26,2     29,6 6,8 62 71 79 1.013 1.015 1.017 29,0 0,0
15-08-2019 22,2     26,1     30,1 7,9 68 77 85 1.014 1.016 1.017 34,0 0,0
14-08-2019 19,6     23,6     27,5 7,9 45 63 81 1.014 1.016 1.017 34,0 0,0
13-08-2019 22,6     25,1     27,7 5,1 36 53 69 1.015 1.016 1.017 34,0 0,0
12-08-2019 24,8     27,6     30,3 5,5 36 56 75 1.010 1.014 1.017 31,0 0,0
11-08-2019 26,2     28,6     30,9 4,7 70 77 84 1.009 1.011 1.013 23,0 0,0
10-08-2019 24,3     27,9     31,5 7,2 48 66 83 1.010 1.013 1.015 23,0 0,0
09-08-2019 22,5     27,1     31,6 9,1 59 71 82 1.008 1.009 1.010 27,0 0,0
08-08-2019 23,6     26,6     29,6 6,0 57 72 87 1.008 1.010 1.011 27,0 0,0
07-08-2019 25,2     28,4     31,6 6,4 66 76 86 1.007 1.009 1.010 18,0 0,0
06-08-2019 23,8     27,2     30,7 6,9 67 76 84 1.007 1.009 1.011 27,0 0,0
05-08-2019 21,9     26,4     30,8 8,9 64 72 80 1.010 1.012 1.013 21,0 0,0
04-08-2019 21,5     24,9     28,4 6,9 62 71 79 1.010 1.012 1.013 29,0 0,0
03-08-2019 21,4     25,5     29,6 8,2 65 75 84 1.010 1.012 1.014 32,0 0,0
02-08-2019 21,7     26,6     31,4 9,7 38 60 82 1.011 1.012 1.013 24,0 0,0
01-08-2019 22,3     26,3     30,3 8,0 57 71 84 1.009 1.012 1.014 21,0 0,0
31-07-2019 21,7     25,6     29,6 7,9 37 58 79 1.013 1.015 1.016 18,0 0,0
30-07-2019 22,7     26,9     31,1 8,4 38 61 83 1.009 1.012 1.014 27,0 0,0
29-07-2019 19,1     24,4     29,6 10,5 44 61 78 1.007 1.008 1.009 29,0 0,0
28-07-2019 21,2     24,9     28,6 7,4 36 49 62 1.004 1.007 1.009 32,0 0,0
27-07-2019 22,5     27,1     31,6 9,1 56 70 84 1.001 1.004 1.006 32,0 0,0
26-07-2019 21,6     26,4     31,1 9,5 62 70 78 1.005 1.008 1.011 19,0 0,0
Últims 13 mesos disponibles
07/2019 19,1 22,0 25,2 26,0 27,6 29,9 32,6 13,5 43 66 82 1.004 1.012 1.019 37,0 0,2
06/2019 12,3 17,5 22,5 21,3 21,0 25,1 30,7 18,4 48 68 80 1.008 1.013 1.020 S 0,2 39,0 4,4
05/2019 8,3 13,9 17,3 17,9 18,2 21,9 28,0 19,7 34 63 83 1.003 1.013 1.022 48,0 26,4
04/2019 8,3 11,9 14,9 15,2 12,1 18,6 23,0 14,7 47 68 84 997 1.012 1.023 SSO 0,3 56,0 21,2
03/2019 5,7 9,0 13,2 13,6 14,4 18,3 21,4 15,7 46 61 81 1.008 1.021 1.028 48,0 5,6
02/2019 2,3 6,2 10,8 11,0 9,3 15,8 20,9 18,6 37 69 82 991 1.022 1.032 71,0 0,0
01/2019 2,9 6,4 10,4 11,0 12,7 15,6 20,2 17,3 40 60 84 999 1.016 1.029 60,0 1,8
12/2018 4,3 8,6 12,9 12,9 13,3 17,2 24,4 20,1 52 72 90 1.007 1.023 1.029 OSO 0,1 58,0 5,2
11/2018 7,1 10,9 15,7 14,8 15,1 18,7 21,3 14,2 52 74 89 1.000 1.013 1.022 61,0 100,4
10/2018 9,6 14,5 17,9 18,9 15,6 23,4 28,2 18,6 38 68 92 996 1.012 1.024 66,0 119,2
09/2018 16,2 20,3 24,4 24,3 24,3 28,3 31,1 14,9 43 66 83 1.010 1.017 1.027 52,0 41,4
08/2018 19,3 22,8 26,7 26,5 27,6 30,3 33,0 13,7 44 68 81 1.009 1.014 1.019 40,0 16,2
07/2018 19,3 22,2 23,9 26,0 26,6 29,7 35,1 15,8 52 71 81 1.008 1.012 1.018 42,0 1,4
Tots els anys disponibles
2018 -1,8 14,1 26,7 18,0 7,4 22,0 35,1 36,9 35 68 93 991 1.014 1.033 0,5 74,0 371,8
2017 1,2 13,9 25,2 17,9 7,3 22,0 37,3 36,1 31 67 93 993 1.017 1.034 0,0 68,0 110,4
2016 1,9 14,1 24,9 18,1 10,3 22,0 32,4 30,5 36 66 92 992 1.016 1.035 63,0 274,2
2015 1,2 12,3 27,8 16,2 8,6 20,0 31,6 30,4 33 68 94 993 1.019 1.036 88,0 296,7
Temperatura (°C)
Humitat relativa (%)
Velocitat del vent i ràfega màxima (km/h)
Direcció del vent (°)
Pressió (hPa)
Precipitació (mm)
Nota sobre les dades: s'avisa a l'usuari de la provisionalitat i no oficialitat d'aquestes dades
Logo AVAMET blanc
Web allotjada a Sollutia
Llicència de Creative CommonsLa web d'AVAMET i els seus continguts estan subjectes a una llicència de
Reconeixement - No Comercial - Compartir igual
Properes estacions: Altea - Club Nàutic d'Altea (Soci), Ares del Maestrat (Ajuntament Soci),      - - - - -      Últimes estacions: Catadau - Urb. Lloma Molina (Inforatge), Ontinyent - El Pilar (Soci) - - -